Time;durP1;ratioP1;P1;durP2;ratioP2;P2;SDS_P1;SDS_P2;PMS_P1;PMS_P2;Temp;Humidity;BMP_temperature;BMP_pressure;BME280_temperature;BME280_humidity;BME280_pressure;Samples;Min_cycle;Max_cycle;Signal;HPM_P1;HPM_P2
2024/03/18 00:01:08;;;;;;;;;;;;;;;12.22;68.71;98957.31;5091495;28;19927;-81
2024/03/18 00:03:33;;;;;;;;;;;;;;;12.03;67.92;98955.50;5109083;28;19972;-81
2024/03/18 00:05:58;;;;;;;;;;;;;;;12.20;67.08;98948.66;5109246;28;19918;-81
2024/03/18 00:08:24;;;;;;;;;;;;;;;12.30;65.99;98954.34;5105587;28;19974;-81
2024/03/18 00:10:49;;;;;;;;;;;;;;;12.37;65.50;98945.78;5106510;28;19942;-80
2024/03/18 00:13:14;;;;;;;;;;;;;;;12.06;65.87;98954.63;5092807;28;19920;-80
2024/03/18 00:15:39;;;;;;;;;;;;;;;12.01;65.88;98946.06;5108973;28;19920;-81
2024/03/18 00:18:05;;;;;;;;;;;;;;;11.94;66.04;98947.06;5108591;28;19916;-79
2024/03/18 00:20:30;;;;;;;;;;;;;;;11.78;68.75;98938.81;5100373;28;20337;-80
2024/03/18 00:22:55;;;;;;;;;;;;;;;11.63;71.75;98943.97;5091155;28;19920;-80
2024/03/18 00:25:21;;;;;;;;;;;;;;;11.76;73.21;98939.25;5091045;28;19980;-80
2024/03/18 00:27:47;;;;;;;;;;;;;;;11.78;72.65;98941.59;5104158;28;19939;-81
2024/03/18 00:30:12;;;;;;;;;;;;;;;11.65;73.18;98935.97;5075767;28;20018;-81
2024/03/18 00:32:39;;;;;;;;;;;;;;;11.59;73.26;98928.66;5097502;28;20315;-81
2024/03/18 00:35:05;;;;;;;;;;;;;;;11.61;73.37;98923.47;5092854;28;19959;-81
2024/03/18 00:37:30;;;;;;;;;;;;;;;11.46;73.21;98919.53;5107949;28;20327;-80
2024/03/18 00:39:56;;;;;;;;;;;;;;;11.44;73.18;98917.22;5101958;28;19920;-80
2024/03/18 00:42:21;;;;;;;;;;;;;;;11.42;72.65;98922.41;5107941;28;20011;-81
2024/03/18 00:44:46;;;;;;;;;;;;;;;11.57;72.75;98920.03;5108492;28;20283;-81
2024/03/18 00:47:12;;;;;;;;;;;;;;;11.41;72.51;98918.84;5092525;28;20394;-80
2024/03/18 00:49:38;;;;;;;;;;;;;;;11.41;71.32;98918.84;5103006;28;19924;-80
2024/03/18 00:52:04;;;;;;;;;;;;;;;11.46;71.40;98922.28;5092042;28;19920;-81
2024/03/18 00:54:29;;;;;;;;;;;;;;;11.25;70.73;98918.13;5103723;28;20388;-79
2024/03/18 00:56:54;;;;;;;;;;;;;;;10.97;71.93;98914.13;5107871;28;19923;-80
2024/03/18 00:59:20;;;;;;;;;;;;;;;10.95;72.39;98906.25;5091182;28;20686;-79
2024/03/18 01:01:45;;;;;;;;;;;;;;;11.01;71.20;98901.75;5104740;28;20335;-80
2024/03/18 01:04:11;;;;;;;;;;;;;;;10.96;72.00;98902.28;5108139;28;19920;-82
2024/03/18 01:06:36;;;;;;;;;;;;;;;11.05;72.13;98904.41;5108186;28;19916;-81
2024/03/18 01:09:02;;;;;;;;;;;;;;;11.13;70.78;98899.47;5103658;28;19924;-81
2024/03/18 01:11:28;;;;;;;;;;;;;;;10.96;71.08;98899.53;5106005;28;19928;-82
2024/03/18 01:13:53;;;;;;;;;;;;;;;10.98;71.87;98893.53;5107916;28;20387;-82
2024/03/18 01:16:22;;;;;;;;;;;;;;;10.81;73.78;98900.28;5108265;28;19916;-81
2024/03/18 01:18:48;;;;;;;;;;;;;;;10.88;73.15;98900.13;5108410;28;19920;-82
2024/03/18 01:21:13;;;;;;;;;;;;;;;10.65;74.03;98898.31;5089700;28;19927;-83
2024/03/18 01:23:39;;;;;;;;;;;;;;;10.56;73.61;98896.16;5091607;28;19924;-83
2024/03/18 01:26:04;;;;;;;;;;;;;;;10.33;73.33;98890.00;5107813;28;20425;-82
2024/03/18 01:28:30;;;;;;;;;;;;;;;10.51;71.53;98890.38;5092738;28;19926;-83
2024/03/18 01:30:56;;;;;;;;;;;;;;;10.41;71.75;98892.19;5105882;28;20011;-83
2024/03/18 01:33:22;;;;;;;;;;;;;;;10.35;71.49;98893.91;5090722;28;19920;-82
2024/03/18 01:35:49;;;;;;;;;;;;;;;10.20;72.13;98889.91;5104371;28;20310;-82
2024/03/18 01:38:14;;;;;;;;;;;;;;;10.13;72.94;98887.28;5101559;28;19923;-82
2024/03/18 01:40:41;;;;;;;;;;;;;;;10.04;73.47;98889.84;5093438;28;19920;-82
2024/03/18 01:43:06;;;;;;;;;;;;;;;9.97;73.59;98885.25;5112143;28;19917;-83
2024/03/18 01:45:32;;;;;;;;;;;;;;;9.98;71.60;98886.03;5112039;28;19969;-82
2024/03/18 01:47:57;;;;;;;;;;;;;;;10.00;70.72;98889.16;5111945;28;19923;-81
2024/03/18 01:50:22;;;;;;;;;;;;;;;9.99;70.33;98891.16;5108746;28;19928;-83
2024/03/18 01:52:48;;;;;;;;;;;;;;;9.89;71.41;98888.59;5102933;28;19920;-82
2024/03/18 01:55:14;;;;;;;;;;;;;;;9.96;70.39;98883.72;5110635;28;19924;-82
2024/03/18 01:57:39;;;;;;;;;;;;;;;10.04;69.04;98895.38;5094775;28;19916;-82
2024/03/18 02:00:13;;;;;;;;;;;;;;;10.12;68.95;98891.25;5111308;28;19920;-81
2024/03/18 02:02:39;;;;;;;;;;;;;;;10.03;67.69;98888.28;5100383;28;19927;-81
2024/03/18 02:05:04;;;;;;;;;;;;;;;9.88;68.46;98893.38;5111206;28;19916;-82
2024/03/18 02:07:33;;;;;;;;;;;;;;;10.05;68.08;98894.19;5111207;28;19916;-81
2024/03/18 02:09:58;;;;;;;;;;;;;;;10.12;67.77;98899.53;5108889;28;19969;-82
2024/03/18 02:12:23;;;;;;;;;;;;;;;10.03;67.88;98891.06;5093823;28;20335;-82
2024/03/18 02:14:54;;;;;;;;;;;;;;;10.03;67.65;98893.81;5111150;28;19916;-82
2024/03/18 02:17:19;;;;;;;;;;;;;;;10.04;66.88;98892.63;5111326;28;19923;-84
2024/03/18 02:19:45;;;;;;;;;;;;;;;10.06;66.50;98898.50;5110499;28;19916;-83
2024/03/18 02:22:10;;;;;;;;;;;;;;;10.04;66.29;98896.16;5094524;28;19924;-82
2024/03/18 02:24:36;;;;;;;;;;;;;;;9.99;66.26;98888.38;5104979;28;20415;-82
2024/03/18 02:27:05;;;;;;;;;;;;;;;10.08;66.12;98893.31;5094041;28;19923;-82
2024/03/18 02:29:30;;;;;;;;;;;;;;;9.93;66.90;98894.84;5081810;28;19947;-81
2024/03/18 02:31:56;;;;;;;;;;;;;;;9.67;67.27;98893.78;5109285;28;20396;-82
2024/03/18 02:34:21;;;;;;;;;;;;;;;9.73;67.36;98898.38;5107454;28;19924;-82
2024/03/18 02:36:46;;;;;;;;;;;;;;;9.59;67.65;98892.38;5110945;28;19920;-82
2024/03/18 02:39:11;;;;;;;;;;;;;;;9.62;67.67;98891.53;5093394;28;20011;-83
2024/03/18 02:41:37;;;;;;;;;;;;;;;9.63;66.85;98891.13;5093315;28;19920;-82
2024/03/18 02:44:02;;;;;;;;;;;;;;;9.60;66.92;98896.69;5093515;28;20466;-82
2024/03/18 02:46:27;;;;;;;;;;;;;;;9.50;66.70;98895.72;5110628;28;19923;-82
2024/03/18 02:48:52;;;;;;;;;;;;;;;9.15;67.87;98896.41;5110144;28;20445;-83
2024/03/18 02:51:18;;;;;;;;;;;;;;;9.18;68.19;98898.28;5101781;28;19923;-82
2024/03/18 02:53:43;;;;;;;;;;;;;;;9.03;69.89;98897.78;5109891;28;20453;-82
2024/03/18 02:56:09;;;;;;;;;;;;;;;8.88;69.85;98893.72;5093504;28;19920;-82
2024/03/18 02:58:34;;;;;;;;;;;;;;;9.42;68.08;98885.22;5110241;28;20391;-82
2024/03/18 03:01:00;;;;;;;;;;;;;;;9.03;70.45;98891.50;5108254;28;19920;-82
2024/03/18 03:03:26;;;;;;;;;;;;;;;9.05;69.43;98891.84;5092607;28;20391;-80
2024/03/18 03:05:51;;;;;;;;;;;;;;;8.91;69.78;98890.91;5109863;28;20007;-81
2024/03/18 03:08:19;;;;;;;;;;;;;;;8.82;69.68;98887.13;5109697;28;19920;-81
2024/03/18 03:10:45;;;;;;;;;;;;;;;8.86;70.23;98888.63;5092506;28;19927;-82
2024/03/18 03:13:10;;;;;;;;;;;;;;;8.58;71.32;98886.34;5095627;28;19928;-84
2024/03/18 03:15:36;;;;;;;;;;;;;;;8.76;70.99;98886.84;5110297;28;19916;-84
2024/03/18 03:18:01;;;;;;;;;;;;;;;8.61;71.12;98880.03;5110738;28;20291;-84
2024/03/18 03:20:30;;;;;;;;;;;;;;;8.37;72.82;98879.22;5093715;28;19920;-84
2024/03/18 03:22:56;;;;;;;;;;;;;;;8.53;72.30;98879.34;5102592;28;19920;-85
2024/03/18 03:25:22;;;;;;;;;;;;;;;8.60;72.84;98881.22;5109775;28;19920;-83
2024/03/18 03:27:47;;;;;;;;;;;;;;;8.61;72.28;98877.25;5110877;28;19969;-83
2024/03/18 03:30:12;;;;;;;;;;;;;;;8.67;72.14;98880.31;5110457;28;19991;-86
2024/03/18 03:32:37;;;;;;;;;;;;;;;8.68;71.85;98882.63;5106236;28;20384;-83
2024/03/18 03:35:03;;;;;;;;;;;;;;;8.75;71.25;98879.75;5093286;28;19920;-84
2024/03/18 03:37:29;;;;;;;;;;;;;;;8.84;70.86;98888.28;5110451;28;19916;-83
2024/03/18 03:39:55;;;;;;;;;;;;;;;8.77;70.96;98890.38;5093223;28;19934;-83
2024/03/18 03:42:20;;;;;;;;;;;;;;;8.81;70.08;98889.09;5092626;28;19924;-84
2024/03/18 03:44:45;;;;;;;;;;;;;;;8.85;69.41;98880.78;5110197;28;20407;-84
2024/03/18 03:47:11;;;;;;;;;;;;;;;8.51;70.52;98887.25;5109866;28;19923;-84
2024/03/18 03:49:36;;;;;;;;;;;;;;;8.42;73.01;98884.25;5093106;28;19919;-84
2024/03/18 03:52:01;;;;;;;;;;;;;;;8.41;73.87;98877.19;5102255;28;20058;-84
2024/03/18 03:54:26;;;;;;;;;;;;;;;8.56;72.78;98878.50;5092759;28;20416;-83
2024/03/18 03:56:52;;;;;;;;;;;;;;;8.55;71.61;98887.19;5092666;28;19920;-84
2024/03/18 03:59:17;;;;;;;;;;;;;;;8.58;71.46;98884.38;5109094;28;20288;-83
2024/03/18 04:01:44;;;;;;;;;;;;;;;8.64;70.85;98881.13;5107974;28;19977;-83
2024/03/18 04:04:09;;;;;;;;;;;;;;;8.82;69.12;98874.13;5103411;28;19920;-85
2024/03/18 04:06:35;;;;;;;;;;;;;;;8.80;68.70;98871.00;5093803;28;19930;-84
2024/03/18 04:09:00;;;;;;;;;;;;;;;8.68;68.14;98871.63;5092895;28;19920;-84
2024/03/18 04:11:26;;;;;;;;;;;;;;;8.85;66.95;98870.56;5103580;28;19920;-85
2024/03/18 04:13:51;;;;;;;;;;;;;;;8.90;66.62;98864.56;5109697;28;20339;-85
2024/03/18 04:16:19;;;;;;;;;;;;;;;8.93;66.23;98857.41;5109815;28;19916;-84
2024/03/18 04:18:44;;;;;;;;;;;;;;;8.96;65.74;98862.88;5100334;28;20300;-85
2024/03/18 04:21:09;;;;;;;;;;;;;;;8.73;66.73;98865.66;5090353;28;19916;-83
2024/03/18 04:23:35;;;;;;;;;;;;;;;8.83;65.04;98870.19;5100520;28;19928;-81
2024/03/18 04:26:03;;;;;;;;;;;;;;;8.64;65.78;98868.16;5105736;28;19940;-83
2024/03/18 04:28:29;;;;;;;;;;;;;;;8.69;66.09;98875.94;5091826;28;19927;-82
2024/03/18 04:30:54;;;;;;;;;;;;;;;8.59;66.57;98868.63;5092826;28;19916;-82
2024/03/18 04:33:19;;;;;;;;;;;;;;;8.60;66.36;98872.94;5103983;28;20440;-82
2024/03/18 04:35:45;;;;;;;;;;;;;;;8.71;65.82;98875.53;5107079;28;19989;-80
2024/03/18 04:38:10;;;;;;;;;;;;;;;8.69;66.01;98867.66;5108567;28;19927;-83
2024/03/18 04:40:36;;;;;;;;;;;;;;;8.57;65.88;98868.25;5108281;28;19942;-83
2024/03/18 04:43:01;;;;;;;;;;;;;;;8.95;64.41;98871.56;5091954;28;19920;-80
2024/03/18 04:45:26;;;;;;;;;;;;;;;8.70;65.17;98871.19;5089601;28;19938;-81
2024/03/18 04:47:52;;;;;;;;;;;;;;;8.72;65.09;98872.34;5081314;28;19920;-82
2024/03/18 04:50:22;;;;;;;;;;;;;;;8.98;64.56;98874.22;5105829;28;19916;-82
2024/03/18 04:52:48;;;;;;;;;;;;;;;8.97;63.82;98878.22;5084276;28;20395;-82
2024/03/18 04:55:13;;;;;;;;;;;;;;;9.08;63.39;98883.53;5108178;28;19930;-81
2024/03/18 04:57:38;;;;;;;;;;;;;;;9.29;62.50;98876.81;5099609;28;19928;-82
2024/03/18 05:00:11;;;;;;;;;;;;;;;9.65;61.93;98874.91;5087565;28;20301;-80
2024/03/18 05:02:37;;;;;;;;;;;;;;;9.78;61.96;98873.06;5090709;28;20300;-83
2024/03/18 05:05:02;;;;;;;;;;;;;;;10.07;60.35;98875.97;5090732;28;19927;-80
2024/03/18 05:07:28;;;;;;;;;;;;;;;10.39;57.88;98877.25;5091525;28;20307;-82
2024/03/18 05:09:54;;;;;;;;;;;;;;;10.63;57.34;98872.31;5108074;28;19926;-81
2024/03/18 05:12:20;;;;;;;;;;;;;;;10.83;56.75;98873.00;5104856;28;19927;-82
2024/03/18 05:14:45;;;;;;;;;;;;;;;11.11;55.95;98875.03;5096263;28;19920;-81
2024/03/18 05:17:10;;;;;;;;;;;;;;;11.15;54.91;98870.16;5096489;28;19920;-81
2024/03/18 05:19:36;;;;;;;;;;;;;;;10.98;54.79;98877.72;5111847;28;20390;-80
2024/03/18 05:22:01;;;;;;;;;;;;;;;11.10;54.60;98873.47;5112241;28;19974;-82
2024/03/18 05:24:26;;;;;;;;;;;;;;;11.00;54.96;98872.53;5103468;28;19973;-80
2024/03/18 05:26:52;;;;;;;;;;;;;;;11.16;54.97;98880.00;5111429;28;20695;-82
2024/03/18 05:29:17;;;;;;;;;;;;;;;11.28;54.48;98879.28;5094930;28;19916;-83
2024/03/18 05:31:44;;;;;;;;;;;;;;;11.53;54.37;98880.59;5112280;28;19926;-83
2024/03/18 05:34:09;;;;;;;;;;;;;;;12.53;51.10;98879.19;5108612;28;19920;-84
2024/03/18 05:36:35;;;;;;;;;;;;;;;13.14;49.25;98877.97;5110632;28;19942;-83
2024/03/18 05:39:00;;;;;;;;;;;;;;;13.79;47.47;98873.22;5096106;28;20586;-82
2024/03/18 05:41:25;;;;;;;;;;;;;;;15.00;44.74;98877.53;5111499;28;19916;-80
2024/03/18 05:43:51;;;;;;;;;;;;;;;15.43;43.44;98873.66;5098468;28;19924;-80
2024/03/18 05:46:17;;;;;;;;;;;;;;;16.25;41.66;98865.16;5089875;28;19916;-83
2024/03/18 05:48:43;;;;;;;;;;;;;;;16.46;41.22;98870.94;5097662;28;20696;-81
2024/03/18 05:51:08;;;;;;;;;;;;;;;16.89;40.00;98872.44;5103241;28;19956;-81
2024/03/18 05:53:33;;;;;;;;;;;;;;;17.02;39.53;98875.75;5084123;28;20034;-81
2024/03/18 05:55:59;;;;;;;;;;;;;;;17.00;39.06;98864.28;5093886;28;19996;-83
2024/03/18 05:58:24;;;;;;;;;;;;;;;17.54;38.84;98865.88;5098372;28;19927;-80
2024/03/18 06:00:49;;;;;;;;;;;;;;;18.14;37.90;98864.69;5095311;28;20304;-81
2024/03/18 06:03:14;;;;;;;;;;;;;;;17.97;37.20;98863.59;5111240;28;20407;-82
2024/03/18 06:05:40;;;;;;;;;;;;;;;18.40;37.26;98854.38;5104113;28;19926;-81
2024/03/18 06:08:05;;;;;;;;;;;;;;;18.86;36.21;98848.22;5106042;28;19920;-82
2024/03/18 06:10:31;;;;;;;;;;;;;;;18.26;36.02;98850.34;5092960;28;20002;-81
2024/03/18 06:12:56;;;;;;;;;;;;;;;18.53;36.57;98843.66;5093055;28;19963;-81
2024/03/18 06:15:21;;;;;;;;;;;;;;;18.98;35.53;98805.09;5108503;28;20006;-82
2024/03/18 06:17:47;;;;;;;;;;;;;;;19.35;35.18;98845.22;5093780;28;20387;-82
2024/03/18 06:20:14;;;;;;;;;;;;;;;19.54;34.75;98842.91;5094400;28;19923;-79
2024/03/18 06:22:39;;;;;;;;;;;;;;;19.58;35.04;98837.88;5109392;28;19923;-83
2024/03/18 06:27:49;;;;;;;;;;;;;;;19.24;34.25;98831.09;5080346;28;19962;-82
2024/03/18 06:30:14;;;;;;;;;;;;;;;19.79;34.12;98832.97;5092479;28;19959;-81
2024/03/18 06:32:40;;;;;;;;;;;;;;;20.32;33.65;98832.38;5091397;28;19920;-80
2024/03/18 06:35:05;;;;;;;;;;;;;;;20.15;33.40;98828.66;5108411;28;20398;-81
2024/03/18 06:37:32;;;;;;;;;;;;;;;20.59;32.91;98828.22;5108349;28;19916;-81
2024/03/18 06:39:57;;;;;;;;;;;;;;;20.79;31.70;98830.91;5108896;28;20006;-80
2024/03/18 06:42:23;;;;;;;;;;;;;;;21.37;30.83;98832.19;5109603;28;20014;-80
2024/03/18 06:44:48;;;;;;;;;;;;;;;21.04;30.96;98824.34;5093867;28;19958;-81
2024/03/18 06:47:13;;;;;;;;;;;;;;;21.62;30.32;98832.47;5101635;28;19934;-80
2024/03/18 06:49:39;;;;;;;;;;;;;;;22.17;29.80;98834.59;5104038;28;19912;-82
2024/03/18 06:52:04;;;;;;;;;;;;;;;22.56;28.44;98826.84;5109446;28;19919;-81
2024/03/18 06:54:29;;;;;;;;;;;;;;;22.10;29.14;98835.09;5093665;28;20444;-82
2024/03/18 06:56:55;;;;;;;;;;;;;;;22.58;28.11;98827.13;5109762;28;19912;-79
2024/03/18 06:59:20;;;;;;;;;;;;;;;23.03;29.35;98815.72;5109275;28;20456;-80
2024/03/18 07:01:45;;;;;;;;;;;;;;;23.32;28.57;98817.13;5109108;28;19922;-80
2024/03/18 07:04:10;;;;;;;;;;;;;;;22.75;28.57;98815.06;5109178;28;19927;-81
2024/03/18 07:06:36;;;;;;;;;;;;;;;22.48;28.46;98817.41;5109247;28;19959;-80
2024/03/18 07:09:02;;;;;;;;;;;;;;;22.00;28.25;98812.09;5093305;28;19919;-80
2024/03/18 07:11:27;;;;;;;;;;;;;;;22.50;29.01;98816.88;5108953;28;19923;-81
2024/03/18 07:13:52;;;;;;;;;;;;;;;23.05;26.98;98801.88;5109038;28;20376;-78
2024/03/18 07:16:18;;;;;;;;;;;;;;;23.29;27.84;98804.84;5093100;28;19920;-79
2024/03/18 07:18:44;;;;;;;;;;;;;;;23.55;27.30;98807.28;5091850;28;20376;-80
2024/03/18 07:21:09;;;;;;;;;;;;;;;23.56;27.18;98808.81;5108567;28;19926;-81
2024/03/18 07:23:34;;;;;;;;;;;;;;;22.98;27.35;98806.00;5093222;28;19912;-81
2024/03/18 07:26:00;;;;;;;;;;;;;;;22.23;28.43;98807.22;5108613;28;20387;-79
2024/03/18 07:28:25;;;;;;;;;;;;;;;22.03;29.62;98799.81;5093058;28;20020;-80
2024/03/18 07:30:50;;;;;;;;;;;;;;;20.87;29.56;98792.63;5108692;28;19959;-79
2024/03/18 07:33:15;;;;;;;;;;;;;;;20.48;30.25;98805.72;5092818;28;20010;-80
2024/03/18 07:35:41;;;;;;;;;;;;;;;20.33;31.27;98793.88;5107411;28;20315;-80
2024/03/18 07:38:07;;;;;;;;;;;;;;;20.19;30.21;98790.69;5108483;28;19912;-80
2024/03/18 07:40:32;;;;;;;;;;;;;;;19.72;31.62;98782.94;5108545;28;19951;-80
2024/03/18 07:42:58;;;;;;;;;;;;;;;19.47;30.56;98782.44;5108701;28;20370;-81
2024/03/18 07:45:23;;;;;;;;;;;;;;;19.41;31.15;98781.59;5092654;28;20369;-79
2024/03/18 07:47:49;;;;;;;;;;;;;;;19.35;30.97;98791.25;5108519;28;19916;-80
2024/03/18 07:50:14;;;;;;;;;;;;;;;19.18;31.91;98785.44;5092257;28;19998;-80
2024/03/18 07:52:39;;;;;;;;;;;;;;;19.10;32.17;98785.13;5108048;28;19965;-81
2024/03/18 07:55:05;;;;;;;;;;;;;;;19.06;32.63;98766.97;5107690;28;19928;-80
2024/03/18 07:57:30;;;;;;;;;;;;;;;18.98;31.45;98771.50;5108087;28;19912;-80
2024/03/18 07:59:56;;;;;;;;;;;;;;;18.98;31.64;98768.69;5108057;28;19916;-81
2024/03/18 08:02:21;;;;;;;;;;;;;;;18.99;30.80;98767.41;5092661;28;20408;-82
2024/03/18 08:04:48;;;;;;;;;;;;;;;19.23;31.34;98773.53;5090654;28;19916;-80
2024/03/18 08:07:14;;;;;;;;;;;;;;;19.18;31.62;98774.22;5092317;28;19934;-80
2024/03/18 08:09:39;;;;;;;;;;;;;;;19.23;32.08;98769.97;5092023;28;19912;-80
2024/03/18 08:12:05;;;;;;;;;;;;;;;19.45;32.13;98775.78;5092311;28;19923;-80
2024/03/18 08:14:31;;;;;;;;;;;;;;;18.71;31.52;98769.88;5107656;28;20028;-81
2024/03/18 08:16:58;;;;;;;;;;;;;;;18.64;32.21;98759.09;5107897;28;19923;-80
2024/03/18 08:19:23;;;;;;;;;;;;;;;18.82;30.94;98756.00;5107559;28;19951;-80
2024/03/18 08:21:48;;;;;;;;;;;;;;;18.78;32.69;98757.50;5092184;28;19946;-83
2024/03/18 08:24:13;;;;;;;;;;;;;;;18.43;31.75;98754.75;5092185;28;19916;-81
2024/03/18 08:26:39;;;;;;;;;;;;;;;18.56;31.04;98758.00;5092289;28;19920;-80
2024/03/18 08:29:04;;;;;;;;;;;;;;;19.00;31.14;98746.53;5091842;28;20284;-82
2024/03/18 08:31:29;;;;;;;;;;;;;;;19.18;34.00;98739.84;5107663;28;19916;-82
2024/03/18 08:33:56;;;;;;;;;;;;;;;19.28;30.36;98747.63;5091940;28;20375;-81
2024/03/18 08:36:21;;;;;;;;;;;;;;;19.29;31.66;98751.94;5091937;28;19970;-81
2024/03/18 08:38:46;;;;;;;;;;;;;;;19.05;30.69;98732.59;5091982;28;19916;-81
2024/03/18 08:41:13;;;;;;;;;;;;;;;19.02;32.21;98732.81;5091376;28;19912;-82
2024/03/18 08:43:38;;;;;;;;;;;;;;;18.91;31.46;98732.72;5107696;28;19912;-82
2024/03/18 08:46:06;;;;;;;;;;;;;;;19.56;31.46;98724.69;5107614;28;19923;-82
2024/03/18 08:48:31;;;;;;;;;;;;;;;19.55;30.20;98723.16;5107875;28;19916;-83
2024/03/18 08:50:57;;;;;;;;;;;;;;;20.14;31.19;98712.88;5090791;28;20388;-82
2024/03/18 08:53:22;;;;;;;;;;;;;;;19.81;33.14;98716.25;5107464;28;20035;-84
2024/03/18 08:55:50;;;;;;;;;;;;;;;20.07;31.09;98706.97;5098870;28;20100;-82
2024/03/18 08:58:15;;;;;;;;;;;;;;;20.10;31.49;98700.34;5084250;28;19924;-82
2024/03/18 09:00:40;;;;;;;;;;;;;;;19.98;30.05;98702.31;5070729;28;20433;-82
2024/03/18 09:03:06;;;;;;;;;;;;;;;19.64;30.32;98701.34;5085287;28;20440;-82
2024/03/18 09:05:31;;;;;;;;;;;;;;;19.59;30.26;98684.47;5078359;28;19967;-83
2024/03/18 09:07:57;;;;;;;;;;;;;;;19.55;30.07;98683.94;5089462;28;19912;-82
2024/03/18 09:10:23;;;;;;;;;;;;;;;19.51;30.90;98678.56;5071108;28;19912;-83
2024/03/18 09:12:48;;;;;;;;;;;;;;;19.68;30.34;98664.66;5084493;28;19912;-82
2024/03/18 09:15:14;;;;;;;;;;;;;;;19.88;30.90;98667.34;5084572;28;19923;-83
2024/03/18 09:17:40;;;;;;;;;;;;;;;20.20;29.71;98660.38;5070472;28;19912;-83
2024/03/18 09:20:06;;;;;;;;;;;;;;;20.12;28.61;98658.56;5070058;28;20307;-82
2024/03/18 09:22:32;;;;;;;;;;;;;;;19.65;29.00;98649.59;5082582;28;20018;-82
2024/03/18 09:24:57;;;;;;;;;;;;;;;19.74;29.91;98641.00;5076539;28;19926;-83
2024/03/18 09:27:22;;;;;;;;;;;;;;;19.92;30.15;98640.59;5084401;28;19951;-80
2024/03/18 09:29:49;;;;;;;;;;;;;;;20.37;28.65;98634.47;5090119;28;19916;-81
2024/03/18 09:32:14;;;;;;;;;;;;;;;19.79;27.80;98633.88;5092171;28;19916;-81
2024/03/18 09:34:40;;;;;;;;;;;;;;;20.02;27.80;98629.16;5091057;28;19927;-82
2024/03/18 09:37:06;;;;;;;;;;;;;;;20.30;27.99;98630.84;5077430;28;19924;-81
2024/03/18 09:39:31;;;;;;;;;;;;;;;20.16;28.32;98625.41;5091218;28;20361;-83
2024/03/18 09:41:56;;;;;;;;;;;;;;;19.94;29.96;98623.28;5090572;28;19916;-80
2024/03/18 09:44:21;;;;;;;;;;;;;;;20.23;28.46;98614.47;5090739;28;19920;-81
2024/03/18 09:46:47;;;;;;;;;;;;;;;19.96;29.23;98614.34;5090754;28;19923;-81
2024/03/18 09:49:22;;;;;;;;;;;;;;;20.25;28.92;98616.78;5080668;28;20390;-80
2024/03/18 09:51:48;;;;;;;;;;;;;;;20.69;27.42;98610.56;5070616;28;19946;-81
2024/03/18 09:54:17;;;;;;;;;;;;;;;20.61;27.39;98612.34;5077330;28;19920;-80
2024/03/18 09:56:46;;;;;;;;;;;;;;;20.37;28.60;98600.78;5102561;28;19924;-80
2024/03/18 09:59:11;;;;;;;;;;;;;;;20.61;31.05;98592.69;5094516;28;20362;-81
2024/03/18 10:01:37;;;;;;;;;;;;;;;20.94;28.28;98606.00;5095300;28;19919;-82
2024/03/18 10:04:02;;;;;;;;;;;;;;;20.76;28.58;98603.66;5094831;28;19924;-80
2024/03/18 10:06:27;;;;;;;;;;;;;;;20.59;27.66;98603.66;5093788;28;19915;-80
2024/03/18 10:08:52;;;;;;;;;;;;;;;20.91;31.17;98593.75;5090988;28;20374;-79
2024/03/18 10:11:20;;;;;;;;;;;;;;;21.28;26.94;98587.88;5093473;28;19920;-80
2024/03/18 10:13:48;;;;;;;;;;;;;;;21.23;27.10;98590.69;5093471;28;19919;-79
2024/03/18 10:16:13;;;;;;;;;;;;;;;20.98;29.59;98581.22;5081549;28;19963;-80
2024/03/18 10:18:39;;;;;;;;;;;;;;;21.07;29.94;98576.13;5078775;28;19948;-80
2024/03/18 10:21:05;;;;;;;;;;;;;;;20.41;29.96;98585.22;5093622;28;19912;-80
2024/03/18 10:23:30;;;;;;;;;;;;;;;20.41;30.70;98570.44;5094787;28;20280;-79
2024/03/18 10:25:55;;;;;;;;;;;;;;;20.78;31.44;98573.06;5093418;28;19935;-81
2024/03/18 10:28:21;;;;;;;;;;;;;;;20.46;28.83;98569.66;5088569;28;19916;-80
2024/03/18 10:30:47;;;;;;;;;;;;;;;20.16;29.15;98567.28;5085058;28;19923;-80
2024/03/18 10:33:15;;;;;;;;;;;;;;;20.29;28.18;98570.38;5076411;28;20018;-79
2024/03/18 10:35:45;;;;;;;;;;;;;;;20.55;30.15;98555.41;5074589;28;20499;-79
2024/03/18 10:38:17;;;;;;;;;;;;;;;20.84;29.95;98559.78;5086156;28;19940;-81
2024/03/18 10:40:46;;;;;;;;;;;;;;;20.86;28.92;98560.03;5087709;28;19927;-81
2024/03/18 10:43:12;;;;;;;;;;;;;;;21.19;30.33;98539.63;5092903;28;19942;-81
2024/03/18 10:45:52;;;;;;;;;;;;;;;21.25;30.26;98538.34;5075164;28;19912;-80
2024/03/18 10:48:17;;;;;;;;;;;;;;;21.37;28.56;98528.59;5086588;28;20394;-80
2024/03/18 10:50:44;;;;;;;;;;;;;;;21.46;29.44;98524.75;5091940;28;19916;-81
2024/03/18 10:53:28;;;;;;;;;;;;;;;21.50;28.06;98523.22;5080945;28;19928;-80
2024/03/18 10:55:53;;;;;;;;;;;;;;;21.52;28.49;98517.06;5075018;28;19924;-80
2024/03/18 10:58:29;;;;;;;;;;;;;;;21.55;28.76;98520.91;5092372;28;20300;-81
2024/03/18 11:00:55;;;;;;;;;;;;;;;21.68;29.39;98510.63;5082294;28;19954;-79
2024/03/18 11:03:21;;;;;;;;;;;;;;;21.68;28.34;98510.63;5085057;28;19920;-80
2024/03/18 11:05:51;;;;;;;;;;;;;;;21.24;28.44;98503.06;5087137;28;19923;-81
2024/03/18 11:08:17;;;;;;;;;;;;;;;21.59;28.67;98507.31;5078091;28;19923;-79
2024/03/18 11:10:43;;;;;;;;;;;;;;;21.58;28.17;98495.31;5084432;28;20455;-80
2024/03/18 11:13:16;;;;;;;;;;;;;;;21.08;26.55;98501.03;5093322;28;20006;-80
2024/03/18 11:16:01;;;;;;;;;;;;;;;21.20;29.87;98493.38;5077185;28;19963;-81
2024/03/18 11:18:27;;;;;;;;;;;;;;;21.12;29.57;98490.31;5072498;28;19943;-79
2024/03/18 11:20:58;;;;;;;;;;;;;;;21.53;29.08;98477.19;5086857;28;20366;-81
2024/03/18 11:23:24;;;;;;;;;;;;;;;21.89;28.77;98472.44;5080745;28;20015;-79
2024/03/18 11:26:00;;;;;;;;;;;;;;;22.11;29.07;98476.44;5090661;28;19924;-80
2024/03/18 11:28:32;;;;;;;;;;;;;;;22.25;28.43;98464.06;5091162;28;20443;-80
2024/03/18 11:30:58;;;;;;;;;;;;;;;22.26;26.60;98460.72;5083774;28;20342;-80
2024/03/18 11:33:23;;;;;;;;;;;;;;;22.30;28.51;98457.66;5075981;28;19932;-82
2024/03/18 11:35:49;;;;;;;;;;;;;;;21.36;27.52;98448.38;5082079;28;19920;-80
2024/03/18 11:38:16;;;;;;;;;;;;;;;21.36;28.30;98450.41;5083700;28;19978;-79
2024/03/18 11:40:41;;;;;;;;;;;;;;;21.39;27.71;98438.16;5091195;28;20310;-80
2024/03/18 11:43:07;;;;;;;;;;;;;;;21.36;26.75;98431.50;5083413;28;19920;-80
2024/03/18 11:45:32;;;;;;;;;;;;;;;21.72;27.68;98429.56;5089347;28;19928;-81
2024/03/18 11:48:00;;;;;;;;;;;;;;;21.64;27.82;98425.75;5086654;28;20707;-81
2024/03/18 11:50:28;;;;;;;;;;;;;;;22.29;27.45;98428.75;5085984;28;19920;-80
2024/03/18 11:52:53;;;;;;;;;;;;;;;22.39;27.18;98426.34;5079440;28;19920;-83
2024/03/18 11:55:19;;;;;;;;;;;;;;;22.34;26.39;98421.53;5086533;28;19920;-81
2024/03/18 11:57:44;;;;;;;;;;;;;;;22.32;27.34;98415.66;5087356;28;19924;-80
2024/03/18 12:00:13;;;;;;;;;;;;;;;21.98;26.52;98411.56;5084651;28;21116;-80
2024/03/18 12:02:40;;;;;;;;;;;;;;;21.77;27.29;98409.06;5074423;28;19924;-82
2024/03/18 12:05:05;;;;;;;;;;;;;;;21.78;27.73;98401.41;5086174;28;20010;-81
2024/03/18 12:07:32;;;;;;;;;;;;;;;21.94;26.38;98404.09;5081519;28;20008;-81
2024/03/18 12:09:58;;;;;;;;;;;;;;;22.18;26.90;98397.09;5082706;28;19920;-80
2024/03/18 12:12:23;;;;;;;;;;;;;;;21.59;27.64;98395.63;5076515;28;19977;-81
2024/03/18 12:14:49;;;;;;;;;;;;;;;21.29;27.79;98380.69;5076797;28;19920;-82
2024/03/18 12:17:14;;;;;;;;;;;;;;;21.41;28.48;98382.16;5082426;28;20311;-80
2024/03/18 12:19:52;;;;;;;;;;;;;;;21.75;27.95;98369.47;5084733;28;20022;-81
2024/03/18 12:22:21;;;;;;;;;;;;;;;22.15;26.46;98367.19;5095122;28;19975;-81
2024/03/18 12:30:18;;;;;;;;;;;;;;;21.26;28.21;98362.84;5074004;28;19947;-80
2024/03/18 12:32:53;;;;;;;;;;;;;;;21.12;27.84;98350.59;5103644;28;19920;-81
2024/03/18 12:35:21;;;;;;;;;;;;;;;21.01;28.93;98361.09;5079089;28;19921;-81
2024/03/18 12:37:47;;;;;;;;;;;;;;;20.84;29.10;98351.97;5083216;28;19927;-79
2024/03/18 12:40:15;;;;;;;;;;;;;;;21.11;28.92;98351.88;5080187;28;20043;-80
2024/03/18 12:42:40;;;;;;;;;;;;;;;21.17;28.64;98354.69;5083007;28;19924;-80
2024/03/18 12:45:07;;;;;;;;;;;;;;;20.91;28.15;98307.28;5078093;28;19920;-81
2024/03/18 12:47:32;;;;;;;;;;;;;;;21.07;29.38;98336.56;5081920;28;20360;-82
2024/03/18 12:50:03;;;;;;;;;;;;;;;20.86;29.05;98338.16;5080217;28;19975;-80